createdAt,value
2017-08-06T00:01:18.915Z,13.20
2017-08-06T00:03:46.580Z,13.30
2017-08-06T00:06:14.248Z,13.30
2017-08-06T00:08:41.872Z,13.30
2017-08-06T00:11:09.563Z,13.10
2017-08-06T00:13:37.141Z,13.10
2017-08-06T00:16:04.750Z,13.00
2017-08-06T00:18:33.234Z,13.00
2017-08-06T00:21:00.869Z,12.90
2017-08-06T00:23:28.646Z,12.90
2017-08-06T00:25:56.230Z,12.80
2017-08-06T00:28:23.837Z,12.70
2017-08-06T00:30:51.468Z,12.70
2017-08-06T00:33:19.086Z,12.60
2017-08-06T00:35:46.796Z,12.60
2017-08-06T00:38:14.414Z,12.50
2017-08-06T00:40:42.058Z,12.50
2017-08-06T00:43:09.745Z,12.50
2017-08-06T00:45:38.287Z,12.50
2017-08-06T00:48:05.925Z,12.50
2017-08-06T00:50:33.502Z,12.40
2017-08-06T00:53:01.131Z,12.50
2017-08-06T00:55:28.954Z,12.50
2017-08-06T00:57:56.529Z,12.50
2017-08-06T01:00:24.133Z,12.40
2017-08-06T01:02:51.731Z,12.40
2017-08-06T01:05:19.365Z,12.40
2017-08-06T01:07:47.143Z,12.40
2017-08-06T01:10:14.854Z,12.30
2017-08-06T01:12:42.491Z,12.20
2017-08-06T01:15:10.092Z,12.30
2017-08-06T01:17:37.831Z,12.30
2017-08-06T01:20:05.489Z,12.30
2017-08-06T01:22:33.847Z,12.30
2017-08-06T01:25:01.585Z,12.20
2017-08-06T01:27:29.269Z,12.20
2017-08-06T01:29:56.856Z,12.20
2017-08-06T01:32:25.205Z,12.10
2017-08-06T01:34:52.922Z,12.10
2017-08-06T01:37:20.512Z,12.00
2017-08-06T01:39:48.144Z,12.00
2017-08-06T01:42:15.833Z,12.10
2017-08-06T01:44:43.442Z,12.10
2017-08-06T01:47:11.840Z,12.10
2017-08-06T01:49:39.440Z,12.10
2017-08-06T01:52:07.097Z,12.00
2017-08-06T01:54:34.750Z,12.00
2017-08-06T01:57:02.373Z,12.10
2017-08-06T01:59:31.084Z,12.00
2017-08-06T02:01:58.761Z,12.20
2017-08-06T02:04:26.353Z,12.10
2017-08-06T02:06:54.004Z,12.20
2017-08-06T02:09:21.766Z,12.10
2017-08-06T02:11:49.349Z,12.10
2017-08-06T02:14:17.180Z,12.20
2017-08-06T02:16:44.901Z,12.20
2017-08-06T02:19:12.565Z,12.20
2017-08-06T02:21:40.151Z,12.10
2017-08-06T02:24:07.800Z,12.10
2017-08-06T02:26:35.432Z,12.10
2017-08-06T02:29:03.813Z,12.00
2017-08-06T02:31:32.194Z,12.00
2017-08-06T02:34:00.591Z,12.10
2017-08-06T02:36:28.216Z,12.10
2017-08-06T02:38:55.828Z,12.10
2017-08-06T02:41:23.423Z,12.10
2017-08-06T02:43:51.275Z,12.10
2017-08-06T02:46:18.887Z,12.10
2017-08-06T02:48:47.247Z,12.10
2017-08-06T02:51:15.949Z,12.00
2017-08-06T02:53:44.381Z,12.00
2017-08-06T02:56:11.975Z,12.00
2017-08-06T02:58:39.589Z,12.00
2017-08-06T03:01:07.222Z,12.00
2017-08-06T03:03:34.866Z,11.90
2017-08-06T03:06:02.491Z,11.90
2017-08-06T03:08:30.079Z,12.00
2017-08-06T03:10:57.780Z,12.00
2017-08-06T03:13:25.591Z,11.90
2017-08-06T03:15:53.185Z,11.90
2017-08-06T03:18:21.539Z,11.90
2017-08-06T03:20:49.277Z,11.90
2017-08-06T03:23:16.863Z,12.00
2017-08-06T03:25:44.480Z,12.00
2017-08-06T03:28:12.251Z,12.00
2017-08-06T03:30:39.987Z,11.90
2017-08-06T03:33:07.610Z,11.90
2017-08-06T03:35:35.182Z,11.80
2017-08-06T03:38:02.820Z,11.80
2017-08-06T03:40:30.447Z,11.80
2017-08-06T03:42:58.070Z,11.80
2017-08-06T03:45:26.533Z,11.70
2017-08-06T03:47:54.228Z,11.70
2017-08-06T03:50:22.580Z,11.80
2017-08-06T03:52:50.181Z,11.80
2017-08-06T03:55:17.838Z,11.80
2017-08-06T03:57:45.432Z,11.70
2017-08-06T04:00:13.059Z,11.70
2017-08-06T04:02:40.653Z,11.70
2017-08-06T04:05:08.378Z,11.70
2017-08-06T04:07:36.817Z,11.60
2017-08-06T04:10:04.433Z,11.60
2017-08-06T04:12:32.103Z,11.60
2017-08-06T04:14:59.717Z,11.60
2017-08-06T04:17:27.315Z,11.50
2017-08-06T04:19:56.026Z,11.60
2017-08-06T04:22:23.738Z,11.50
2017-08-06T04:24:52.077Z,11.60
2017-08-06T04:27:19.682Z,11.60
2017-08-06T04:29:48.182Z,11.60
2017-08-06T04:32:15.860Z,11.60
2017-08-06T04:34:43.472Z,11.60
2017-08-06T04:37:11.145Z,11.70
2017-08-06T04:39:40.656Z,11.80
2017-08-06T04:42:09.076Z,11.80
2017-08-06T04:44:36.712Z,11.80
2017-08-06T04:47:04.389Z,11.90
2017-08-06T04:49:32.014Z,11.90
2017-08-06T04:52:00.442Z,12.10
2017-08-06T04:54:28.051Z,12.10
2017-08-06T04:56:55.689Z,12.20
2017-08-06T04:59:23.424Z,12.30
2017-08-06T05:01:51.010Z,12.30
2017-08-06T05:04:18.665Z,12.40
2017-08-06T05:06:46.340Z,12.40
2017-08-06T05:09:13.939Z,12.60
2017-08-06T05:11:41.571Z,12.70
2017-08-06T05:14:09.213Z,12.70
2017-08-06T05:16:36.885Z,12.80
2017-08-06T05:19:04.493Z,12.90
2017-08-06T05:21:32.148Z,13.50
2017-08-06T05:24:00.517Z,14.30
2017-08-06T05:26:28.871Z,14.50
2017-08-06T05:28:57.292Z,14.60
2017-08-06T05:31:24.874Z,14.60
2017-08-06T05:33:52.495Z,14.20
2017-08-06T05:36:20.119Z,14.20
2017-08-06T05:38:47.732Z,14.00
2017-08-06T05:41:15.376Z,13.80
2017-08-06T05:43:42.994Z,13.90
2017-08-06T05:46:10.782Z,13.60
2017-08-06T05:48:38.545Z,13.50
2017-08-06T05:51:06.262Z,13.50
2017-08-06T05:53:33.866Z,14.00
2017-08-06T05:56:01.481Z,14.30
2017-08-06T05:58:29.290Z,14.90
2017-08-06T06:00:56.988Z,14.80
2017-08-06T06:03:25.327Z,15.10
2017-08-06T06:05:53.023Z,15.10
2017-08-06T06:08:20.724Z,15.30
2017-08-06T06:10:48.315Z,15.50
2017-08-06T06:13:15.925Z,15.80
2017-08-06T06:15:44.269Z,15.90
2017-08-06T06:18:11.875Z,15.90
2017-08-06T06:20:39.509Z,16.30
2017-08-06T06:23:07.237Z,16.60
2017-08-06T06:25:34.873Z,16.90
2017-08-06T06:28:02.504Z,17.00
2017-08-06T06:30:30.856Z,17.50
2017-08-06T06:32:58.502Z,17.50
2017-08-06T06:35:26.107Z,17.30
2017-08-06T06:37:54.457Z,17.90
2017-08-06T06:40:22.146Z,17.90
2017-08-06T06:42:50.664Z,18.40
2017-08-06T06:45:18.260Z,18.30
2017-08-06T06:47:45.853Z,18.30
2017-08-06T06:50:14.239Z,19.30
2017-08-06T06:52:41.831Z,19.30
2017-08-06T06:55:09.414Z,19.30
2017-08-06T06:57:37.074Z,19.50
2017-08-06T07:00:04.680Z,19.60
2017-08-06T07:02:33.049Z,19.60
2017-08-06T07:05:01.433Z,19.70
2017-08-06T07:07:29.778Z,19.50
2017-08-06T07:09:57.450Z,19.50
2017-08-06T07:12:25.121Z,20.00
2017-08-06T07:14:52.701Z,19.80
2017-08-06T07:17:21.147Z,20.50
2017-08-06T07:19:48.895Z,20.50
2017-08-06T07:22:16.491Z,21.10
2017-08-06T07:24:44.841Z,20.90
2017-08-06T07:27:12.536Z,20.90
2017-08-06T07:29:41.146Z,21.70
2017-08-06T07:32:08.733Z,21.70
2017-08-06T07:34:36.468Z,21.40
2017-08-06T07:37:04.052Z,21.80
2017-08-06T07:39:31.738Z,21.40
2017-08-06T07:41:59.374Z,21.50
2017-08-06T07:44:26.996Z,21.60
2017-08-06T07:46:54.664Z,22.10
2017-08-06T07:49:22.297Z,23.00
2017-08-06T07:51:50.010Z,23.80
2017-08-06T07:54:17.631Z,23.70
2017-08-06T07:56:45.285Z,25.00
2017-08-06T07:59:21.552Z,24.20
2017-08-06T08:01:56.089Z,24.70
2017-08-06T08:04:25.111Z,26.00
2017-08-06T08:06:52.733Z,25.90
2017-08-06T08:09:21.319Z,24.80
2017-08-06T08:11:49.675Z,24.40
2017-08-06T08:14:17.826Z,24.40
2017-08-06T08:16:45.573Z,24.10
2017-08-06T08:19:13.587Z,25.50
2017-08-06T08:21:41.358Z,23.90
2017-08-06T08:24:08.943Z,24.50
2017-08-06T08:26:36.592Z,26.00
2017-08-06T08:29:04.989Z,25.30
2017-08-06T08:31:32.616Z,25.30
2017-08-06T08:34:00.203Z,24.70
2017-08-06T08:36:28.583Z,27.00
2017-08-06T08:38:56.950Z,26.50
2017-08-06T08:41:25.389Z,26.00
2017-08-06T08:43:53.001Z,26.00
2017-08-06T08:46:21.351Z,27.20
2017-08-06T08:48:48.985Z,27.20
2017-08-06T08:51:16.716Z,26.50
2017-08-06T08:53:44.418Z,26.10
2017-08-06T08:56:12.008Z,23.60
2017-08-06T08:58:39.715Z,21.90
2017-08-06T09:01:07.579Z,20.60
2017-08-06T09:03:36.243Z,22.00
2017-08-06T09:06:03.947Z,23.90
2017-08-06T09:08:32.029Z,24.90
2017-08-06T09:10:59.685Z,24.80
2017-08-06T09:13:27.550Z,25.60
2017-08-06T09:15:55.188Z,25.40
2017-08-06T09:18:22.922Z,25.40
2017-08-06T09:20:51.315Z,23.70
2017-08-06T09:23:19.677Z,23.70
2017-08-06T09:25:48.121Z,25.40
2017-08-06T09:28:15.856Z,25.40
2017-08-06T09:30:43.651Z,26.20
2017-08-06T09:33:11.343Z,27.30
2017-08-06T09:35:39.009Z,28.50
2017-08-06T09:38:07.411Z,27.70
2017-08-06T09:40:36.852Z,27.60
2017-08-06T09:43:04.603Z,28.80
2017-08-06T09:45:35.485Z,29.30
2017-08-06T09:48:03.517Z,29.20
2017-08-06T09:50:32.273Z,29.00
2017-08-06T09:53:00.807Z,28.00
2017-08-06T09:55:28.688Z,27.90
2017-08-06T09:57:56.283Z,28.10
2017-08-06T10:00:24.743Z,27.00
2017-08-06T10:02:52.435Z,27.00
2017-08-06T10:05:20.773Z,27.70
2017-08-06T10:07:48.386Z,27.70
2017-08-06T10:10:16.053Z,27.80
2017-08-06T10:12:44.525Z,28.20
2017-08-06T10:15:12.303Z,28.80
2017-08-06T10:17:39.902Z,27.50
2017-08-06T10:20:08.600Z,25.60
2017-08-06T10:22:36.272Z,23.80
2017-08-06T10:25:03.849Z,22.40
2017-08-06T10:27:32.146Z,23.70
2017-08-06T10:29:59.814Z,22.60
2017-08-06T10:32:28.491Z,25.00
2017-08-06T10:34:56.080Z,26.00
2017-08-06T10:37:23.694Z,25.00
2017-08-06T10:39:52.050Z,25.70
2017-08-06T10:42:19.649Z,25.70
2017-08-06T10:44:47.264Z,25.90
2017-08-06T10:47:15.089Z,26.90
2017-08-06T10:49:42.743Z,27.30
2017-08-06T10:52:10.367Z,26.90
2017-08-06T10:54:37.947Z,27.00
2017-08-06T10:57:06.328Z,25.30
2017-08-06T10:59:34.706Z,23.70
2017-08-06T11:02:02.371Z,23.70
2017-08-06T11:04:30.065Z,23.40
2017-08-06T11:06:57.966Z,25.40
2017-08-06T11:09:25.599Z,25.70
2017-08-06T11:11:53.169Z,25.50
2017-08-06T11:14:20.926Z,26.00
2017-08-06T11:16:48.510Z,25.00
2017-08-06T11:19:16.119Z,25.70
2017-08-06T11:21:43.774Z,25.40
2017-08-06T11:24:11.446Z,24.00
2017-08-06T11:26:39.028Z,24.40
2017-08-06T11:29:06.743Z,24.60
2017-08-06T11:31:35.117Z,25.90
2017-08-06T11:34:03.478Z,24.60
2017-08-06T11:36:31.069Z,24.50
2017-08-06T11:38:59.414Z,25.70
2017-08-06T11:41:27.018Z,25.70
2017-08-06T11:43:54.626Z,26.20
2017-08-06T11:46:22.402Z,26.70
2017-08-06T11:48:50.396Z,26.70
2017-08-06T11:51:18.825Z,26.50
2017-08-06T11:53:46.415Z,26.50
2017-08-06T11:56:14.076Z,26.70
2017-08-06T11:58:41.719Z,25.90
2017-08-06T12:01:09.328Z,25.60
2017-08-06T12:03:37.703Z,25.70
2017-08-06T12:06:05.296Z,25.70
2017-08-06T12:08:32.982Z,25.90
2017-08-06T12:11:00.598Z,26.30
2017-08-06T12:13:28.313Z,26.70
2017-08-06T12:15:55.914Z,26.90
2017-08-06T12:18:23.705Z,26.80
2017-08-06T12:20:51.299Z,25.40
2017-08-06T12:23:18.952Z,24.90
2017-08-06T12:25:46.711Z,24.30
2017-08-06T12:28:14.319Z,24.60
2017-08-06T12:30:42.691Z,25.10
2017-08-06T12:33:11.224Z,24.60
2017-08-06T12:35:38.888Z,24.50
2017-08-06T12:38:06.476Z,24.00
2017-08-06T12:40:34.119Z,23.60
2017-08-06T12:43:01.780Z,23.10
2017-08-06T12:45:29.436Z,23.10
2017-08-06T12:47:57.240Z,22.70
2017-08-06T12:50:25.786Z,22.90
2017-08-06T12:52:53.409Z,22.90
2017-08-06T12:55:21.032Z,23.30
2017-08-06T12:57:48.605Z,23.60
2017-08-06T13:00:17.033Z,23.20
2017-08-06T13:02:44.646Z,23.20
2017-08-06T13:05:12.998Z,22.70
2017-08-06T13:07:40.593Z,22.70
2017-08-06T13:10:09.040Z,22.60
2017-08-06T13:12:36.626Z,22.50
2017-08-06T13:15:04.968Z,22.50
2017-08-06T13:17:32.695Z,22.50
2017-08-06T13:20:00.288Z,22.40
2017-08-06T13:22:27.874Z,22.20
2017-08-06T13:24:55.491Z,22.30
2017-08-06T13:27:23.167Z,22.80
2017-08-06T13:29:50.784Z,22.70
2017-08-06T13:32:19.158Z,22.50
2017-08-06T13:34:47.514Z,22.60
2017-08-06T13:37:15.152Z,22.60
2017-08-06T13:39:42.759Z,22.60
2017-08-06T13:42:11.243Z,22.60
2017-08-06T13:44:38.833Z,22.60
2017-08-06T13:47:06.517Z,22.50
2017-08-06T13:49:34.109Z,22.50
2017-08-06T13:52:01.694Z,22.90
2017-08-06T13:54:30.097Z,24.20
2017-08-06T13:56:57.694Z,24.20
2017-08-06T13:59:25.272Z,24.10
2017-08-06T14:01:52.996Z,24.60
2017-08-06T14:04:20.783Z,24.50
2017-08-06T14:06:48.360Z,24.60
2017-08-06T14:09:16.106Z,25.00
2017-08-06T14:11:43.818Z,25.10
2017-08-06T14:14:12.175Z,24.50
2017-08-06T14:16:39.832Z,24.50
2017-08-06T14:19:07.486Z,24.30
2017-08-06T14:21:35.130Z,24.90
2017-08-06T14:24:02.741Z,24.40
2017-08-06T14:26:31.131Z,24.30
2017-08-06T14:28:58.916Z,24.20
2017-08-06T14:31:27.658Z,24.30
2017-08-06T14:33:55.251Z,23.90
2017-08-06T14:36:22.944Z,23.50
2017-08-06T14:38:50.727Z,24.00
2017-08-06T14:41:18.314Z,24.50
2017-08-06T14:43:47.103Z,23.80
2017-08-06T14:46:14.714Z,23.80
2017-08-06T14:48:42.292Z,23.70
2017-08-06T14:51:09.862Z,23.70
2017-08-06T14:53:37.490Z,23.70
2017-08-06T14:56:05.121Z,23.80
2017-08-06T14:58:32.712Z,23.60
2017-08-06T15:01:00.332Z,23.50
2017-08-06T15:03:28.758Z,23.50
2017-08-06T15:05:56.668Z,23.50
2017-08-06T15:08:25.105Z,22.80
2017-08-06T15:10:52.689Z,22.80
2017-08-06T15:13:21.371Z,22.80
2017-08-06T15:15:49.005Z,22.90
2017-08-06T15:18:16.606Z,23.00
2017-08-06T15:20:44.190Z,23.10
2017-08-06T15:23:12.594Z,23.10
2017-08-06T15:25:40.200Z,23.00
2017-08-06T15:28:07.793Z,23.10
2017-08-06T15:30:36.215Z,22.90
2017-08-06T15:33:03.806Z,22.90
2017-08-06T15:35:31.373Z,23.10
2017-08-06T15:37:58.977Z,22.90
2017-08-06T15:40:26.760Z,23.00
2017-08-06T15:42:54.342Z,23.00
2017-08-06T15:45:21.940Z,22.80
2017-08-06T15:47:50.291Z,22.80
2017-08-06T15:50:17.929Z,22.80
2017-08-06T15:52:45.551Z,22.90
2017-08-06T15:55:13.267Z,22.80
2017-08-06T15:57:41.003Z,22.60
2017-08-06T16:00:09.732Z,22.50
2017-08-06T16:02:37.324Z,22.30
2017-08-06T16:05:05.963Z,22.20
2017-08-06T16:07:35.138Z,22.20
2017-08-06T16:10:03.034Z,21.70
2017-08-06T16:12:30.887Z,21.50
2017-08-06T16:14:58.612Z,21.40
2017-08-06T16:17:26.228Z,21.10
2017-08-06T16:19:54.041Z,20.80
2017-08-06T16:22:21.665Z,20.80
2017-08-06T16:24:49.301Z,20.80
2017-08-06T16:27:17.167Z,21.10
2017-08-06T16:29:44.767Z,21.50
2017-08-06T16:32:14.621Z,21.90
2017-08-06T16:34:42.282Z,21.90
2017-08-06T16:37:10.203Z,22.00
2017-08-06T16:39:38.563Z,21.90
2017-08-06T16:42:06.149Z,21.90
2017-08-06T16:44:34.573Z,22.10
2017-08-06T16:47:02.362Z,22.10
2017-08-06T16:49:30.182Z,22.00
2017-08-06T16:51:57.802Z,22.00
2017-08-06T16:54:25.781Z,21.70
2017-08-06T16:56:53.854Z,21.70
2017-08-06T16:59:21.491Z,21.60
2017-08-06T17:01:50.079Z,21.50
2017-08-06T17:04:18.169Z,21.30
2017-08-06T17:06:46.012Z,21.20
2017-08-06T17:09:13.585Z,21.20
2017-08-06T17:11:41.150Z,21.10
2017-08-06T17:14:08.817Z,21.00
2017-08-06T17:16:36.522Z,21.10
2017-08-06T17:19:04.129Z,21.00
2017-08-06T17:21:34.094Z,21.10
2017-08-06T17:24:02.124Z,21.00
2017-08-06T17:26:29.755Z,21.00
2017-08-06T17:28:57.594Z,21.00
2017-08-06T17:31:28.112Z,20.90
2017-08-06T17:33:56.492Z,20.60
2017-08-06T17:36:24.139Z,20.60
2017-08-06T17:38:52.423Z,20.60
2017-08-06T17:41:20.095Z,20.50
2017-08-06T17:43:47.669Z,20.50
2017-08-06T17:46:16.029Z,20.50
2017-08-06T17:48:43.884Z,20.50
2017-08-06T17:51:12.445Z,20.40
2017-08-06T17:53:40.122Z,20.40
2017-08-06T17:56:07.866Z,20.20
2017-08-06T17:58:35.454Z,20.20
2017-08-06T18:01:03.675Z,20.10
2017-08-06T18:03:31.449Z,20.00
2017-08-06T18:05:59.131Z,20.00
2017-08-06T18:08:26.773Z,19.90
2017-08-06T18:10:54.486Z,19.80
2017-08-06T18:13:22.544Z,19.70
2017-08-06T18:15:50.231Z,19.60
2017-08-06T18:18:18.673Z,19.40
2017-08-06T18:20:46.428Z,19.40
2017-08-06T18:23:14.903Z,19.30
2017-08-06T18:25:42.637Z,19.20
2017-08-06T18:28:10.981Z,19.10
2017-08-06T18:30:38.570Z,19.10
2017-08-06T18:33:06.193Z,19.00
2017-08-06T18:35:33.963Z,18.90
2017-08-06T18:38:01.691Z,18.80
2017-08-06T18:40:29.472Z,18.80
2017-08-06T18:42:57.089Z,18.60
2017-08-06T18:45:25.536Z,18.40
2017-08-06T18:47:53.491Z,18.40
2017-08-06T18:50:21.253Z,18.30
2017-08-06T18:52:48.856Z,18.20
2017-08-06T18:55:17.262Z,18.00
2017-08-06T18:57:44.902Z,18.00
2017-08-06T19:00:13.248Z,17.90
2017-08-06T19:02:40.906Z,17.90
2017-08-06T19:05:08.575Z,17.80
2017-08-06T19:07:36.365Z,17.70
2017-08-06T19:10:03.976Z,17.60
2017-08-06T19:12:31.563Z,17.50
2017-08-06T19:14:59.238Z,17.40
2017-08-06T19:17:26.963Z,17.30
2017-08-06T19:19:54.548Z,17.40
2017-08-06T19:22:22.905Z,17.30
2017-08-06T19:24:50.617Z,17.00
2017-08-06T19:27:18.967Z,16.80
2017-08-06T19:29:46.550Z,16.80
2017-08-06T19:32:14.212Z,16.90
2017-08-06T19:34:43.035Z,16.60
2017-08-06T19:37:10.744Z,16.60
2017-08-06T19:39:38.528Z,16.50
2017-08-06T19:42:06.449Z,16.40
2017-08-06T19:44:35.450Z,16.20
2017-08-06T19:47:03.180Z,16.20
2017-08-06T19:49:31.185Z,16.00
2017-08-06T19:51:59.358Z,15.90
2017-08-06T19:54:27.124Z,15.80
2017-08-06T19:56:54.800Z,15.80
2017-08-06T19:59:22.648Z,15.70
2017-08-06T20:01:51.385Z,15.60
2017-08-06T20:04:19.198Z,15.50
2017-08-06T20:06:47.070Z,15.50
2017-08-06T20:09:14.732Z,15.40
2017-08-06T20:11:42.729Z,15.40
2017-08-06T20:14:12.856Z,15.30
2017-08-06T20:16:41.496Z,15.20
2017-08-06T20:19:09.399Z,15.20
2017-08-06T20:21:37.232Z,15.20
2017-08-06T20:24:06.096Z,15.10
2017-08-06T20:26:34.927Z,15.00
2017-08-06T20:29:02.883Z,14.90
2017-08-06T20:31:30.857Z,14.90
2017-08-06T20:33:58.522Z,14.80
2017-08-06T20:36:26.838Z,14.80
2017-08-06T20:38:55.077Z,14.80
2017-08-06T20:41:22.750Z,14.80
2017-08-06T20:43:50.492Z,14.70
2017-08-06T20:46:18.996Z,14.70
2017-08-06T20:48:46.595Z,14.70
2017-08-06T20:51:14.438Z,14.70
2017-08-06T20:53:42.330Z,14.60
2017-08-06T20:56:09.908Z,14.60
2017-08-06T20:58:37.827Z,14.60
2017-08-06T21:01:05.463Z,14.60
2017-08-06T21:03:33.484Z,14.50
2017-08-06T21:06:02.021Z,14.50
2017-08-06T21:08:29.641Z,14.40
2017-08-06T21:10:57.222Z,14.40
2017-08-06T21:13:24.999Z,14.30
2017-08-06T21:15:52.601Z,14.20
2017-08-06T21:18:20.199Z,14.10
2017-08-06T21:20:47.916Z,14.10
2017-08-06T21:23:15.536Z,14.20
2017-08-06T21:25:43.129Z,14.10
2017-08-06T21:28:10.931Z,14.10
2017-08-06T21:30:38.908Z,14.00
2017-08-06T21:33:06.534Z,14.10
2017-08-06T21:35:34.127Z,14.00
2017-08-06T21:38:03.866Z,14.00
2017-08-06T21:40:31.527Z,14.00
2017-08-06T21:42:59.122Z,13.80
2017-08-06T21:45:26.728Z,13.70
2017-08-06T21:47:54.423Z,13.70
2017-08-06T21:50:22.162Z,13.60
2017-08-06T21:52:49.901Z,13.50
2017-08-06T21:55:18.251Z,13.50
2017-08-06T21:57:45.853Z,13.50
2017-08-06T22:00:13.543Z,13.50
2017-08-06T22:02:41.132Z,13.40
2017-08-06T22:05:08.741Z,13.40
2017-08-06T22:07:36.362Z,13.30
2017-08-06T22:10:04.084Z,13.30
2017-08-06T22:12:31.665Z,13.20
2017-08-06T22:14:59.345Z,13.20
2017-08-06T22:17:26.921Z,13.20
2017-08-06T22:19:54.711Z,13.30
2017-08-06T22:22:22.422Z,13.30
2017-08-06T22:24:50.003Z,13.30
2017-08-06T22:27:18.371Z,13.20
2017-08-06T22:29:45.993Z,13.10
2017-08-06T22:32:13.581Z,13.10
2017-08-06T22:34:41.152Z,13.20
2017-08-06T22:37:08.789Z,13.10
2017-08-06T22:39:36.470Z,13.10
2017-08-06T22:42:04.054Z,13.20
2017-08-06T22:44:32.440Z,13.30
2017-08-06T22:47:00.044Z,13.20
2017-08-06T22:49:27.634Z,13.30
2017-08-06T22:51:55.253Z,13.30
2017-08-06T22:54:22.911Z,13.30
2017-08-06T22:56:50.600Z,13.20
2017-08-06T22:59:18.211Z,13.20
2017-08-06T23:01:45.783Z,13.00
2017-08-06T23:04:13.549Z,13.00
2017-08-06T23:06:41.166Z,12.90
2017-08-06T23:09:08.754Z,12.80
2017-08-06T23:11:36.482Z,12.80
2017-08-06T23:14:04.220Z,12.70
2017-08-06T23:16:31.803Z,12.60
2017-08-06T23:18:59.394Z,12.60
2017-08-06T23:21:27.027Z,12.60
2017-08-06T23:23:54.623Z,12.60
2017-08-06T23:26:22.346Z,12.60
2017-08-06T23:28:50.009Z,12.70
2017-08-06T23:31:17.591Z,12.70
2017-08-06T23:33:45.176Z,12.70
2017-08-06T23:36:12.832Z,12.70
2017-08-06T23:38:40.444Z,12.70
2017-08-06T23:41:08.016Z,12.60
2017-08-06T23:43:35.877Z,12.50
2017-08-06T23:46:03.623Z,12.50
2017-08-06T23:48:31.214Z,12.40
2017-08-06T23:50:58.866Z,12.40
2017-08-06T23:53:26.483Z,12.40
2017-08-06T23:55:54.177Z,12.30
2017-08-06T23:58:21.987Z,12.30
